createdAt,value
2018-06-19T00:02:14.577Z,4.03
2018-06-19T00:04:43.524Z,4.77
2018-06-19T00:07:12.430Z,4.23
2018-06-19T00:09:41.210Z,4.67
2018-06-19T00:12:09.901Z,5.00
2018-06-19T00:14:38.818Z,4.57
2018-06-19T00:17:07.773Z,4.10
2018-06-19T00:19:39.590Z,4.60
2018-06-19T00:22:08.476Z,4.17
2018-06-19T00:24:37.496Z,4.20
2018-06-19T00:27:06.661Z,4.20
2018-06-19T00:29:35.685Z,4.70
2018-06-19T00:32:04.578Z,4.50
2018-06-19T00:34:34.241Z,4.30
2018-06-19T00:37:03.362Z,4.40
2018-06-19T00:39:32.145Z,4.63
2018-06-19T00:42:01.259Z,5.00
2018-06-19T00:44:31.759Z,5.00
2018-06-19T00:47:00.682Z,4.90
2018-06-19T00:49:29.564Z,4.80
2018-06-19T00:51:58.354Z,4.93
2018-06-19T00:54:27.294Z,5.13
2018-06-19T00:56:58.563Z,4.67
2018-06-19T00:59:27.833Z,5.40
2018-06-19T01:01:58.421Z,4.80
2018-06-19T01:04:27.313Z,5.40
2018-06-19T01:06:56.032Z,4.73
2018-06-19T01:09:24.904Z,5.23
2018-06-19T01:11:53.781Z,5.27
2018-06-19T01:14:22.702Z,4.50
2018-06-19T01:16:51.605Z,4.80
2018-06-19T01:19:20.551Z,4.73
2018-06-19T01:21:49.553Z,5.43
2018-06-19T01:24:18.269Z,5.20
2018-06-19T01:26:47.264Z,5.87
2018-06-19T01:29:16.429Z,4.77
2018-06-19T01:31:45.326Z,5.33
2018-06-19T01:34:14.058Z,5.73
2018-06-19T01:36:42.981Z,4.57
2018-06-19T01:39:12.150Z,5.37
2018-06-19T01:41:41.070Z,5.23
2018-06-19T01:44:09.826Z,4.57
2018-06-19T01:46:38.719Z,5.70
2018-06-19T01:49:07.743Z,5.00
2018-06-19T01:51:36.753Z,4.60
2018-06-19T01:54:05.634Z,4.40
2018-06-19T01:56:34.681Z,4.63
2018-06-19T01:59:03.721Z,4.63
2018-06-19T02:01:32.416Z,5.07
2018-06-19T02:04:01.263Z,4.90
2018-06-19T02:06:30.180Z,4.70
2018-06-19T02:08:59.164Z,4.53
2018-06-19T02:11:28.063Z,5.57
2018-06-19T02:13:57.138Z,4.90
2018-06-19T02:16:25.990Z,5.40
2018-06-19T02:18:54.819Z,5.53
2018-06-19T02:21:23.511Z,4.97
2018-06-19T02:23:52.653Z,4.87
2018-06-19T02:26:21.520Z,4.90
2018-06-19T02:28:50.434Z,5.10
2018-06-19T02:31:19.326Z,4.87
2018-06-19T02:33:48.422Z,4.77
2018-06-19T02:36:17.227Z,5.20
2018-06-19T02:38:45.939Z,5.07
2018-06-19T02:41:14.682Z,5.17
2018-06-19T02:43:43.526Z,4.67
2018-06-19T02:46:12.619Z,5.30
2018-06-19T02:48:41.435Z,4.63
2018-06-19T02:51:10.293Z,5.67
2018-06-19T02:53:39.279Z,5.97
2018-06-19T02:56:08.093Z,4.87
2018-06-19T02:58:36.957Z,5.23
2018-06-19T03:01:05.824Z,5.17
2018-06-19T03:03:35.294Z,5.60
2018-06-19T03:06:04.436Z,5.20
2018-06-19T03:08:33.441Z,5.43
2018-06-19T03:11:02.533Z,5.27
2018-06-19T03:13:31.252Z,6.23
2018-06-19T03:16:00.209Z,4.90
2018-06-19T03:18:28.974Z,4.83
2018-06-19T03:20:58.351Z,4.67
2018-06-19T03:23:27.174Z,6.30
2018-06-19T03:25:55.956Z,5.63
2018-06-19T03:28:24.759Z,5.30
2018-06-19T03:30:53.632Z,5.80
2018-06-19T03:33:22.396Z,5.20
2018-06-19T03:35:51.255Z,5.53
2018-06-19T03:38:20.405Z,4.83
2018-06-19T03:40:49.594Z,5.47
2018-06-19T03:43:18.757Z,4.77
2018-06-19T03:45:47.740Z,5.27
2018-06-19T03:48:16.692Z,4.70
2018-06-19T03:50:45.464Z,4.90
2018-06-19T03:53:14.329Z,5.30
2018-06-19T03:55:43.229Z,4.73
2018-06-19T03:58:11.996Z,4.67
2018-06-19T04:00:40.810Z,5.43
2018-06-19T04:03:09.962Z,4.73
2018-06-19T04:05:38.866Z,4.83
2018-06-19T04:08:07.899Z,5.00
2018-06-19T04:10:37.390Z,5.47
2018-06-19T04:13:06.390Z,5.03
2018-06-19T04:15:35.246Z,4.83
2018-06-19T04:18:04.160Z,4.60
2018-06-19T04:20:32.961Z,5.70
2018-06-19T04:23:01.831Z,4.93
2018-06-19T04:25:30.797Z,5.13
2018-06-19T04:27:59.732Z,5.07
2018-06-19T04:30:28.813Z,6.50
2018-06-19T04:32:57.923Z,5.30
2018-06-19T04:35:26.863Z,5.50
2018-06-19T04:37:55.669Z,4.80
2018-06-19T04:40:24.411Z,5.53
2018-06-19T04:42:53.465Z,5.20
2018-06-19T04:45:22.231Z,5.23
2018-06-19T04:47:50.960Z,4.73
2018-06-19T04:50:19.748Z,5.27
2018-06-19T04:52:48.748Z,5.03
2018-06-19T04:55:17.597Z,5.23
2018-06-19T04:57:46.463Z,5.20
2018-06-19T05:00:15.699Z,5.60
2018-06-19T05:02:44.407Z,6.10
2018-06-19T05:05:13.437Z,4.53
2018-06-19T05:07:42.306Z,4.67
2018-06-19T05:10:11.073Z,5.30
2018-06-19T05:12:40.080Z,5.20
2018-06-19T05:15:09.172Z,5.00
2018-06-19T05:17:38.302Z,5.00
2018-06-19T05:20:07.263Z,4.80
2018-06-19T05:22:36.406Z,5.33
2018-06-19T05:25:05.254Z,5.53
2018-06-19T05:27:34.346Z,4.80
2018-06-19T05:30:03.212Z,4.70
2018-06-19T05:32:32.164Z,4.87
2018-06-19T05:35:01.218Z,3.93
2018-06-19T05:37:29.973Z,5.40
2018-06-19T05:39:58.849Z,4.90
2018-06-19T05:42:27.591Z,4.50
2018-06-19T05:44:56.348Z,5.20
2018-06-19T05:47:25.159Z,4.67
2018-06-19T05:49:54.575Z,4.90
2018-06-19T05:52:23.947Z,5.50
2018-06-19T05:54:52.765Z,4.40
2018-06-19T05:57:21.868Z,4.80
2018-06-19T05:59:50.808Z,4.33
2018-06-19T06:02:19.902Z,4.63
2018-06-19T06:04:49.004Z,4.47
2018-06-19T06:07:19.505Z,4.70
2018-06-19T06:09:48.408Z,4.53
2018-06-19T06:12:17.382Z,4.20
2018-06-19T06:14:46.226Z,5.43
2018-06-19T06:17:15.108Z,5.20
2018-06-19T06:19:44.022Z,4.97
2018-06-19T06:22:12.914Z,5.30
2018-06-19T06:24:41.858Z,5.63
2018-06-19T06:27:10.763Z,4.70
2018-06-19T06:29:39.932Z,4.50
2018-06-19T06:32:08.949Z,5.20
2018-06-19T06:34:37.798Z,4.40
2018-06-19T06:37:06.923Z,5.57
2018-06-19T06:39:35.726Z,4.10
2018-06-19T06:42:05.106Z,3.47
2018-06-19T06:44:34.172Z,4.47
2018-06-19T06:47:02.987Z,4.27
2018-06-19T06:49:32.092Z,4.50
2018-06-19T06:52:00.856Z,3.97
2018-06-19T06:54:30.397Z,4.43
2018-06-19T06:57:00.994Z,4.20
2018-06-19T06:59:30.643Z,4.03
2018-06-19T07:01:59.445Z,4.03
2018-06-19T07:04:28.801Z,3.10
2018-06-19T07:06:58.125Z,3.70
2018-06-19T07:09:26.998Z,4.23
2018-06-19T07:11:55.948Z,3.80
2018-06-19T07:14:24.777Z,3.73
2018-06-19T07:16:53.738Z,3.17
2018-06-19T07:19:22.544Z,3.70
2018-06-19T07:21:51.646Z,3.43
2018-06-19T07:24:20.794Z,3.20
2018-06-19T07:26:49.903Z,3.10
2018-06-19T07:29:18.754Z,3.07
2018-06-19T07:31:48.087Z,3.00
2018-06-19T07:34:17.273Z,3.17
2018-06-19T07:36:46.608Z,3.67
2018-06-19T07:39:15.886Z,4.20
2018-06-19T07:41:44.673Z,2.60
2018-06-19T07:44:13.848Z,3.23
2018-06-19T07:46:42.685Z,2.67
2018-06-19T07:49:11.761Z,3.30
2018-06-19T07:51:40.718Z,3.80
2018-06-19T07:54:09.611Z,3.17
2018-06-19T07:56:38.618Z,2.70
2018-06-19T07:59:07.433Z,3.30
2018-06-19T08:01:36.257Z,3.67
2018-06-19T08:04:05.307Z,2.73
2018-06-19T08:06:34.451Z,2.47
2018-06-19T08:09:03.646Z,2.67
2018-06-19T08:11:32.487Z,2.80
2018-06-19T08:14:01.773Z,2.40
2018-06-19T08:16:31.253Z,3.17
2018-06-19T08:19:00.440Z,2.70
2018-06-19T08:21:29.294Z,2.63
2018-06-19T08:23:58.239Z,3.20
2018-06-19T08:26:27.177Z,2.63
2018-06-19T08:28:56.321Z,2.67
2018-06-19T08:31:25.363Z,2.33
2018-06-19T08:33:54.305Z,1.93
2018-06-19T08:36:23.185Z,2.03
2018-06-19T08:38:52.079Z,2.33
2018-06-19T08:41:21.542Z,2.30
2018-06-19T08:43:50.520Z,2.20
2018-06-19T08:46:19.287Z,2.33
2018-06-19T08:48:48.401Z,2.70
2018-06-19T08:51:17.165Z,2.07
2018-06-19T08:53:46.538Z,1.80
2018-06-19T08:56:15.370Z,2.40
2018-06-19T08:58:44.297Z,2.33
2018-06-19T09:01:13.175Z,2.10
2018-06-19T09:03:42.266Z,1.87
2018-06-19T09:06:12.041Z,2.10
2018-06-19T09:08:40.973Z,1.90
2018-06-19T09:11:09.963Z,2.10
2018-06-19T09:13:39.557Z,1.70
2018-06-19T09:16:08.567Z,2.40
2018-06-19T09:18:41.287Z,1.70
2018-06-19T09:21:10.472Z,1.83
2018-06-19T09:23:39.340Z,2.17
2018-06-19T09:26:08.613Z,2.43
2018-06-19T09:28:37.538Z,1.90
2018-06-19T09:31:06.752Z,1.90
2018-06-19T09:33:35.821Z,2.00
2018-06-19T09:36:04.709Z,2.27
2018-06-19T09:38:34.024Z,3.43
2018-06-19T09:41:03.030Z,2.60
2018-06-19T09:43:32.043Z,2.37
2018-06-19T09:46:00.728Z,2.33
2018-06-19T09:48:29.520Z,1.73
2018-06-19T09:50:58.454Z,1.90
2018-06-19T09:53:27.316Z,1.87
2018-06-19T09:55:56.190Z,1.50
2018-06-19T09:58:25.430Z,1.63
2018-06-19T10:00:55.022Z,2.77
2018-06-19T10:03:26.047Z,2.40
2018-06-19T10:05:54.899Z,1.70
2018-06-19T10:08:23.738Z,2.30
2018-06-19T10:10:52.570Z,2.33
2018-06-19T10:13:21.562Z,2.33
2018-06-19T10:15:50.532Z,1.87
2018-06-19T10:18:19.927Z,2.20
2018-06-19T10:20:48.893Z,2.10
2018-06-19T10:23:17.657Z,2.40
2018-06-19T10:25:46.689Z,1.90
2018-06-19T10:28:15.512Z,2.53
2018-06-19T10:30:44.656Z,2.80
2018-06-19T10:33:13.745Z,1.50
2018-06-19T10:35:42.819Z,1.90
2018-06-19T10:38:11.740Z,2.20
2018-06-19T10:40:40.607Z,2.10
2018-06-19T10:43:09.908Z,1.33
2018-06-19T10:45:39.013Z,2.10
2018-06-19T10:48:07.987Z,1.87
2018-06-19T10:50:37.014Z,3.40
2018-06-19T10:53:05.975Z,1.60
2018-06-19T10:55:34.907Z,1.53
2018-06-19T10:58:03.812Z,1.57
2018-06-19T11:00:32.750Z,1.47
2018-06-19T11:03:02.631Z,1.50
2018-06-19T11:05:31.815Z,2.13
2018-06-19T11:08:00.860Z,1.60
2018-06-19T11:10:29.849Z,1.60
2018-06-19T11:12:58.723Z,1.73
2018-06-19T11:15:27.749Z,1.70
2018-06-19T11:17:56.950Z,1.67
2018-06-19T11:20:26.542Z,2.20
2018-06-19T11:22:55.506Z,1.87
2018-06-19T11:25:24.609Z,1.40
2018-06-19T11:27:53.471Z,1.93
2018-06-19T11:30:22.298Z,2.10
2018-06-19T11:32:51.361Z,2.13
2018-06-19T11:35:20.539Z,2.03
2018-06-19T11:37:49.673Z,2.00
2018-06-19T11:40:18.397Z,2.00
2018-06-19T11:42:47.287Z,2.40
2018-06-19T11:45:16.221Z,1.90
2018-06-19T11:47:45.475Z,2.03
2018-06-19T11:50:14.777Z,1.70
2018-06-19T11:52:44.283Z,2.27
2018-06-19T11:55:13.130Z,1.53
2018-06-19T11:57:42.752Z,1.93
2018-06-19T12:00:11.562Z,1.80
2018-06-19T12:02:40.783Z,1.53
2018-06-19T12:05:09.764Z,1.90
2018-06-19T12:07:45.126Z,1.57
2018-06-19T12:10:14.016Z,1.80
2018-06-19T12:12:42.752Z,1.60
2018-06-19T12:15:11.646Z,1.60
2018-06-19T12:17:40.610Z,1.67
2018-06-19T12:20:09.894Z,1.50
2018-06-19T12:22:38.774Z,1.83
2018-06-19T12:25:07.609Z,1.73
2018-06-19T12:27:36.608Z,2.00
2018-06-19T12:30:06.786Z,2.00
2018-06-19T12:32:36.157Z,1.83
2018-06-19T12:35:05.115Z,2.00
2018-06-19T12:37:33.964Z,2.40
2018-06-19T12:40:02.894Z,2.23
2018-06-19T12:42:31.952Z,2.03
2018-06-19T12:45:01.171Z,1.67
2018-06-19T12:47:30.373Z,1.63
2018-06-19T12:51:42.050Z,1.63
2018-06-19T12:55:04.757Z,1.50
2018-06-19T12:57:34.404Z,1.97
2018-06-19T13:00:03.546Z,1.60
2018-06-19T13:02:32.379Z,2.10
2018-06-19T13:05:12.096Z,1.70
2018-06-19T13:07:42.971Z,2.57
2018-06-19T13:10:12.903Z,2.47
2018-06-19T13:13:18.425Z,1.33
2018-06-19T13:15:47.441Z,2.10
2018-06-19T13:18:27.469Z,1.87
2018-06-19T13:20:56.476Z,1.90
2018-06-19T13:23:25.443Z,1.40
2018-06-19T13:25:54.599Z,1.80
2018-06-19T13:28:33.134Z,1.53
2018-06-19T13:31:13.156Z,1.60
2018-06-19T13:33:42.169Z,1.50
2018-06-19T13:36:11.135Z,1.70
2018-06-19T13:38:40.414Z,1.40
2018-06-19T13:41:21.646Z,2.40
2018-06-19T13:44:02.773Z,2.00
2018-06-19T13:46:31.997Z,1.43
2018-06-19T13:49:00.882Z,1.40
2018-06-19T13:51:29.882Z,2.30
2018-06-19T13:53:58.642Z,1.43
2018-06-19T13:57:40.072Z,2.13
2018-06-19T14:00:12.189Z,1.50
2018-06-19T14:02:41.117Z,1.90
2018-06-19T14:05:10.726Z,1.60
2018-06-19T14:07:50.675Z,2.20
2018-06-19T14:11:28.905Z,1.93
2018-06-19T14:13:57.985Z,2.13
2018-06-19T14:16:27.066Z,2.13
2018-06-19T14:18:55.875Z,1.90
2018-06-19T14:21:24.752Z,1.73
2018-06-19T14:23:53.915Z,2.20
2018-06-19T14:26:23.041Z,1.57
2018-06-19T14:28:51.889Z,1.80
2018-06-19T14:31:20.657Z,2.00
2018-06-19T14:33:49.480Z,1.70
2018-06-19T14:36:18.375Z,1.40
2018-06-19T14:38:47.077Z,1.50
2018-06-19T14:41:16.038Z,1.90
2018-06-19T14:43:44.892Z,2.30
2018-06-19T14:46:13.686Z,1.60
2018-06-19T14:48:42.691Z,1.67
2018-06-19T14:51:11.854Z,2.00
2018-06-19T14:53:40.885Z,1.57
2018-06-19T14:56:09.715Z,1.30
2018-06-19T14:58:38.614Z,1.80
2018-06-19T15:01:07.438Z,1.57
2018-06-19T15:03:36.536Z,1.40
2018-06-19T15:06:05.489Z,1.30
2018-06-19T15:08:34.434Z,1.53
2018-06-19T15:11:03.935Z,1.50
2018-06-19T15:13:32.795Z,1.70
2018-06-19T15:16:01.619Z,1.60
2018-06-19T15:18:30.837Z,1.30
2018-06-19T15:20:59.809Z,1.80
2018-06-19T15:23:28.803Z,1.43
2018-06-19T15:25:57.688Z,1.53
2018-06-19T15:28:26.667Z,1.47
2018-06-19T15:30:59.143Z,1.90
2018-06-19T15:33:28.187Z,1.80
2018-06-19T15:35:56.985Z,1.93
2018-06-19T15:38:25.970Z,1.60
2018-06-19T15:40:55.232Z,1.57
2018-06-19T15:43:23.964Z,2.57
2018-06-19T15:45:54.579Z,1.40
2018-06-19T15:48:23.620Z,1.77
2018-06-19T15:50:52.562Z,1.60
2018-06-19T15:53:21.410Z,1.60
2018-06-19T15:55:50.422Z,1.60
2018-06-19T15:58:19.217Z,1.73
2018-06-19T16:00:48.643Z,1.70
2018-06-19T16:03:17.622Z,2.03
2018-06-19T16:05:46.480Z,1.83
2018-06-19T16:08:17.881Z,2.00
2018-06-19T16:10:48.289Z,2.30
2018-06-19T16:13:19.280Z,1.27
2018-06-19T16:15:48.007Z,1.50
2018-06-19T16:18:17.094Z,1.93
2018-06-19T16:20:46.021Z,1.77
2018-06-19T16:23:15.048Z,1.87
2018-06-19T16:25:43.966Z,2.47
2018-06-19T16:28:12.876Z,2.37
2018-06-19T16:30:42.169Z,1.60
2018-06-19T16:33:11.004Z,2.30
2018-06-19T16:35:40.098Z,2.00
2018-06-19T16:38:09.106Z,2.03
2018-06-19T16:40:38.309Z,1.80
2018-06-19T16:43:07.291Z,1.87
2018-06-19T16:45:36.422Z,2.10
2018-06-19T16:48:05.739Z,2.47
2018-06-19T16:50:35.002Z,1.80
2018-06-19T16:53:04.004Z,1.93
2018-06-19T16:55:33.116Z,1.90
2018-06-19T16:58:01.836Z,2.30
2018-06-19T17:00:30.671Z,2.00
2018-06-19T17:02:59.586Z,2.07
2018-06-19T17:05:29.164Z,1.80
2018-06-19T17:07:57.916Z,1.73
2018-06-19T17:10:27.050Z,1.80
2018-06-19T17:12:56.042Z,2.30
2018-06-19T17:15:25.210Z,2.70
2018-06-19T17:17:53.970Z,2.10
2018-06-19T17:20:23.157Z,1.93
2018-06-19T17:22:52.223Z,1.87
2018-06-19T17:25:21.194Z,1.60
2018-06-19T17:27:50.018Z,2.60
2018-06-19T17:30:18.903Z,2.10
2018-06-19T17:32:47.729Z,1.80
2018-06-19T17:35:19.425Z,2.40
2018-06-19T17:37:48.404Z,2.00
2018-06-19T17:40:17.638Z,2.40
2018-06-19T17:42:46.657Z,2.17
2018-06-19T17:45:15.869Z,2.40
2018-06-19T17:47:44.973Z,1.90
2018-06-19T17:50:13.944Z,2.00
2018-06-19T17:52:43.778Z,1.80
2018-06-19T17:55:12.541Z,1.60
2018-06-19T17:57:41.859Z,2.00
2018-06-19T18:00:11.116Z,1.70
2018-06-19T18:02:40.291Z,2.60
2018-06-19T18:05:09.380Z,2.37
2018-06-19T18:07:38.251Z,2.23
2018-06-19T18:10:07.274Z,1.87
2018-06-19T18:12:36.131Z,2.00
2018-06-19T18:15:06.452Z,2.63
2018-06-19T18:17:35.352Z,1.80
2018-06-19T18:20:04.533Z,2.37
2018-06-19T18:22:33.702Z,2.00
2018-06-19T18:25:03.088Z,2.30
2018-06-19T18:27:31.849Z,2.30
2018-06-19T18:30:01.041Z,2.00
2018-06-19T18:32:30.028Z,2.57
2018-06-19T18:35:02.970Z,2.43
2018-06-19T18:37:31.967Z,2.30
2018-06-19T18:40:00.822Z,2.57
2018-06-19T18:42:31.911Z,2.10
2018-06-19T18:45:00.972Z,2.30
2018-06-19T18:47:29.939Z,2.30
2018-06-19T18:49:58.867Z,2.17
2018-06-19T18:52:29.793Z,2.40
2018-06-19T18:54:58.910Z,2.20
2018-06-19T18:57:28.073Z,2.13
2018-06-19T18:59:56.865Z,2.43
2018-06-19T19:02:25.894Z,2.30
2018-06-19T19:04:55.052Z,1.93
2018-06-19T19:07:23.933Z,2.30
2018-06-19T19:09:58.123Z,2.03
2018-06-19T19:12:27.069Z,2.57
2018-06-19T19:15:01.391Z,2.43
2018-06-19T19:17:35.631Z,2.80
2018-06-19T19:20:04.943Z,1.93
2018-06-19T19:22:34.177Z,2.63
2018-06-19T19:25:03.510Z,2.80
2018-06-19T19:27:37.661Z,2.17
2018-06-19T19:30:07.165Z,2.57
2018-06-19T19:32:36.005Z,2.33
2018-06-19T19:35:05.885Z,2.60
2018-06-19T19:37:40.243Z,2.60
2018-06-19T19:40:09.104Z,2.87
2018-06-19T19:42:39.274Z,2.00
2018-06-19T19:45:08.787Z,2.60
2018-06-19T19:47:42.999Z,2.43
2018-06-19T19:50:11.945Z,2.23
2018-06-19T19:52:41.842Z,2.83
2018-06-19T19:55:11.173Z,2.60
2018-06-19T19:57:45.382Z,2.60
2018-06-19T20:00:18.479Z,2.57
2018-06-19T20:02:48.279Z,3.20
2018-06-19T20:05:17.347Z,2.53
2018-06-19T20:07:46.160Z,2.97
2018-06-19T20:10:15.832Z,2.63
2018-06-19T20:12:44.795Z,3.00
2018-06-19T20:15:13.549Z,2.40
2018-06-19T20:17:42.442Z,1.87
2018-06-19T20:20:12.475Z,2.60
2018-06-19T20:22:41.766Z,2.30
2018-06-19T20:25:11.193Z,2.70
2018-06-19T20:27:42.660Z,2.37
2018-06-19T20:30:11.722Z,2.87
2018-06-19T20:32:40.536Z,2.77
2018-06-19T20:35:09.481Z,2.50
2018-06-19T20:37:38.494Z,3.03
2018-06-19T20:40:07.745Z,3.20
2018-06-19T20:42:36.831Z,2.70
2018-06-19T20:45:05.686Z,2.53
2018-06-19T20:47:34.614Z,2.17
2018-06-19T20:50:03.450Z,2.40
2018-06-19T20:52:32.411Z,2.47
2018-06-19T20:55:01.398Z,2.97
2018-06-19T20:57:30.551Z,2.80
2018-06-19T20:59:59.634Z,2.73
2018-06-19T21:02:28.426Z,2.97
2018-06-19T21:04:57.434Z,2.60
2018-06-19T21:07:26.308Z,2.67
2018-06-19T21:09:55.225Z,3.03
2018-06-19T21:12:23.961Z,2.23
2018-06-19T21:14:53.108Z,2.60
2018-06-19T21:17:21.994Z,2.50
2018-06-19T21:19:50.951Z,2.50
2018-06-19T21:22:19.724Z,2.70
2018-06-19T21:24:48.793Z,2.97
2018-06-19T21:27:17.769Z,2.40
2018-06-19T21:29:46.613Z,2.33
2018-06-19T21:32:15.840Z,2.40
2018-06-19T21:34:44.614Z,2.30
2018-06-19T21:37:13.922Z,3.47
2018-06-19T21:39:42.895Z,2.87
2018-06-19T21:42:11.845Z,2.77
2018-06-19T21:44:40.667Z,3.30
2018-06-19T21:47:09.622Z,2.70
2018-06-19T21:49:38.415Z,2.30
2018-06-19T21:52:07.881Z,2.87
2018-06-19T21:54:36.741Z,2.50
2018-06-19T21:57:05.819Z,2.67
2018-06-19T21:59:34.683Z,2.40
2018-06-19T22:02:03.800Z,2.17
2018-06-19T22:04:32.523Z,2.70
2018-06-19T22:07:01.588Z,2.90
2018-06-19T22:09:30.312Z,2.67
2018-06-19T22:11:59.194Z,2.97
2018-06-19T22:14:28.026Z,2.90
2018-06-19T22:16:56.918Z,3.47
2018-06-19T22:19:25.688Z,4.27
2018-06-19T22:21:54.720Z,4.30
2018-06-19T22:24:23.665Z,4.43
2018-06-19T22:26:52.545Z,5.50
2018-06-19T22:29:21.665Z,5.57
2018-06-19T22:31:50.615Z,5.53
2018-06-19T22:34:19.462Z,7.23
2018-06-19T22:36:48.437Z,7.33
2018-06-19T22:39:17.395Z,7.93
2018-06-19T22:41:46.106Z,7.83
2018-06-19T22:44:15.243Z,8.27
2018-06-19T22:46:43.989Z,7.37
2018-06-19T22:49:12.846Z,6.60
2018-06-19T22:51:41.714Z,5.37
2018-06-19T22:54:10.456Z,6.07
2018-06-19T22:56:39.543Z,5.80
2018-06-19T22:59:08.942Z,4.40
2018-06-19T23:01:37.897Z,3.80
2018-06-19T23:04:06.709Z,4.00
2018-06-19T23:06:35.699Z,3.70
2018-06-19T23:09:06.603Z,5.00
2018-06-19T23:11:35.661Z,7.00
2018-06-19T23:14:04.800Z,6.07
2018-06-19T23:16:34.045Z,5.90
2018-06-19T23:19:03.262Z,5.87
2018-06-19T23:21:32.094Z,5.70
2018-06-19T23:24:01.259Z,6.10
2018-06-19T23:26:30.271Z,5.43
2018-06-19T23:28:59.450Z,5.73
2018-06-19T23:31:28.719Z,4.90
2018-06-19T23:33:57.852Z,5.07
2018-06-19T23:36:27.017Z,5.07
2018-06-19T23:38:55.835Z,5.13
2018-06-19T23:41:24.928Z,5.87
2018-06-19T23:43:53.987Z,5.43
2018-06-19T23:46:22.868Z,5.20
2018-06-19T23:48:51.771Z,4.63
2018-06-19T23:51:20.649Z,5.33
2018-06-19T23:53:49.451Z,4.57
2018-06-19T23:56:18.169Z,4.60
2018-06-19T23:58:47.114Z,4.67
